sensor_id;sensor_type;location;lat;lon;timestamp;temperature;humidity
52125;DHT22;38119;52.710;6.398;2023-02-11T00:00:06;6.90;99.90
52125;DHT22;38119;52.710;6.398;2023-02-11T00:02:32;6.90;99.90
52125;DHT22;38119;52.710;6.398;2023-02-11T00:04:59;7.00;99.90
52125;DHT22;38119;52.710;6.398;2023-02-11T00:07:31;6.90;99.90
52125;DHT22;38119;52.710;6.398;2023-02-11T00:09:57;6.90;99.90
52125;DHT22;38119;52.710;6.398;2023-02-11T00:12:22;7.00;99.90
52125;DHT22;38119;52.710;6.398;2023-02-11T00:14:48;7.00;99.90
52125;DHT22;38119;52.710;6.398;2023-02-11T00:17:14;6.90;99.90
52125;DHT22;38119;52.710;6.398;2023-02-11T00:19:40;6.90;99.90
52125;DHT22;38119;52.710;6.398;2023-02-11T00:22:05;6.90;99.90
52125;DHT22;38119;52.710;6.398;2023-02-11T00:24:31;6.90;99.90
52125;DHT22;38119;52.710;6.398;2023-02-11T00:26:57;6.90;99.90
52125;DHT22;38119;52.710;6.398;2023-02-11T00:29:23;7.00;99.90
52125;DHT22;38119;52.710;6.398;2023-02-11T00:31:49;7.00;99.90
52125;DHT22;38119;52.710;6.398;2023-02-11T00:34:14;7.00;99.90
52125;DHT22;38119;52.710;6.398;2023-02-11T00:36:40;7.00;99.90
52125;DHT22;38119;52.710;6.398;2023-02-11T00:39:06;6.90;99.90
52125;DHT22;38119;52.710;6.398;2023-02-11T00:41:32;7.00;99.90
52125;DHT22;38119;52.710;6.398;2023-02-11T00:43:58;7.00;99.90
52125;DHT22;38119;52.710;6.398;2023-02-11T00:46:24;7.10;99.90
52125;DHT22;38119;52.710;6.398;2023-02-11T00:48:50;6.90;99.90
52125;DHT22;38119;52.710;6.398;2023-02-11T00:51:17;6.90;99.90
52125;DHT22;38119;52.710;6.398;2023-02-11T00:53:43;6.90;99.90
52125;DHT22;38119;52.710;6.398;2023-02-11T00:56:09;6.90;99.90
52125;DHT22;38119;52.710;6.398;2023-02-11T00:58:35;6.90;99.90
52125;DHT22;38119;52.710;6.398;2023-02-11T01:01:01;6.90;99.90
52125;DHT22;38119;52.710;6.398;2023-02-11T01:03:27;6.90;99.90
52125;DHT22;38119;52.710;6.398;2023-02-11T01:05:53;6.90;99.90
52125;DHT22;38119;52.710;6.398;2023-02-11T01:08:19;6.80;99.90
52125;DHT22;38119;52.710;6.398;2023-02-11T01:10:44;6.80;99.90
52125;DHT22;38119;52.710;6.398;2023-02-11T01:13:10;6.80;99.90
52125;DHT22;38119;52.710;6.398;2023-02-11T01:15:36;6.80;99.90
52125;DHT22;38119;52.710;6.398;2023-02-11T01:18:04;6.70;99.90
52125;DHT22;38119;52.710;6.398;2023-02-11T01:20:29;6.80;99.90
52125;DHT22;38119;52.710;6.398;2023-02-11T01:22:55;6.70;99.90
52125;DHT22;38119;52.710;6.398;2023-02-11T01:25:20;6.70;99.90
52125;DHT22;38119;52.710;6.398;2023-02-11T01:27:46;6.80;99.90
52125;DHT22;38119;52.710;6.398;2023-02-11T01:30:13;6.80;99.90
52125;DHT22;38119;52.710;6.398;2023-02-11T01:32:39;6.80;99.90
52125;DHT22;38119;52.710;6.398;2023-02-11T01:35:05;6.80;99.90
52125;DHT22;38119;52.710;6.398;2023-02-11T01:37:35;6.80;99.90
52125;DHT22;38119;52.710;6.398;2023-02-11T01:40:02;6.90;99.90
52125;DHT22;38119;52.710;6.398;2023-02-11T01:42:28;6.90;99.90
52125;DHT22;38119;52.710;6.398;2023-02-11T01:44:56;6.80;99.90
52125;DHT22;38119;52.710;6.398;2023-02-11T01:47:22;6.80;99.90
52125;DHT22;38119;52.710;6.398;2023-02-11T01:49:56;6.80;99.90
52125;DHT22;38119;52.710;6.398;2023-02-11T01:52:36;6.90;99.90
52125;DHT22;38119;52.710;6.398;2023-02-11T01:55:08;6.90;99.90
52125;DHT22;38119;52.710;6.398;2023-02-11T01:57:56;7.00;99.90
52125;DHT22;38119;52.710;6.398;2023-02-11T02:00:35;6.90;99.90
52125;DHT22;38119;52.710;6.398;2023-02-11T02:03:06;6.90;99.90
52125;DHT22;38119;52.710;6.398;2023-02-11T02:10:43;6.90;99.90
52125;DHT22;38119;52.710;6.398;2023-02-11T02:13:10;6.90;99.90
52125;DHT22;38119;52.710;6.398;2023-02-11T02:15:38;6.90;99.90
52125;DHT22;38119;52.710;6.398;2023-02-11T02:30:26;6.90;99.90
52125;DHT22;38119;52.710;6.398;2023-02-11T02:36:13;6.90;99.90
52125;DHT22;38119;52.710;6.398;2023-02-11T02:41:14;6.90;99.90
52125;DHT22;38119;52.710;6.398;2023-02-11T02:43:44;7.00;99.90
52125;DHT22;38119;52.710;6.398;2023-02-11T02:46:15;7.00;99.90
52125;DHT22;38119;52.710;6.398;2023-02-11T02:48:41;7.00;99.90
52125;DHT22;38119;52.710;6.398;2023-02-11T02:56:47;7.00;99.90
52125;DHT22;38119;52.710;6.398;2023-02-11T03:07:51;7.00;99.90
52125;DHT22;38119;52.710;6.398;2023-02-11T03:10:28;7.00;99.90
52125;DHT22;38119;52.710;6.398;2023-02-11T03:12:56;7.00;99.90
52125;DHT22;38119;52.710;6.398;2023-02-11T03:15:23;7.10;99.90
52125;DHT22;38119;52.710;6.398;2023-02-11T03:17:52;7.00;99.90
52125;DHT22;38119;52.710;6.398;2023-02-11T03:20:21;7.00;99.90
52125;DHT22;38119;52.710;6.398;2023-02-11T03:23:05;7.10;99.90
52125;DHT22;38119;52.710;6.398;2023-02-11T03:25:37;7.10;99.90
52125;DHT22;38119;52.710;6.398;2023-02-11T03:28:17;7.10;99.90
52125;DHT22;38119;52.710;6.398;2023-02-11T03:30:53;7.10;99.90
52125;DHT22;38119;52.710;6.398;2023-02-11T03:33:34;7.10;99.90
52125;DHT22;38119;52.710;6.398;2023-02-11T03:36:03;7.10;99.90
52125;DHT22;38119;52.710;6.398;2023-02-11T03:38:41;7.10;99.90
52125;DHT22;38119;52.710;6.398;2023-02-11T03:41:09;7.00;99.90
52125;DHT22;38119;52.710;6.398;2023-02-11T03:43:42;7.10;99.90
52125;DHT22;38119;52.710;6.398;2023-02-11T03:46:10;7.10;99.90
52125;DHT22;38119;52.710;6.398;2023-02-11T03:48:42;7.10;99.90
52125;DHT22;38119;52.710;6.398;2023-02-11T03:51:10;7.10;99.90
52125;DHT22;38119;52.710;6.398;2023-02-11T03:53:38;7.10;99.90
52125;DHT22;38119;52.710;6.398;2023-02-11T03:56:08;7.10;99.90
52125;DHT22;38119;52.710;6.398;2023-02-11T03:58:35;7.10;99.90
52125;DHT22;38119;52.710;6.398;2023-02-11T04:01:00;7.10;99.90
52125;DHT22;38119;52.710;6.398;2023-02-11T04:03:27;7.10;99.90
52125;DHT22;38119;52.710;6.398;2023-02-11T04:05:53;7.10;99.90
52125;DHT22;38119;52.710;6.398;2023-02-11T04:08:19;7.10;99.90
52125;DHT22;38119;52.710;6.398;2023-02-11T04:10:45;7.00;99.90
52125;DHT22;38119;52.710;6.398;2023-02-11T04:13:10;7.00;99.90
52125;DHT22;38119;52.710;6.398;2023-02-11T04:15:36;7.00;99.90
52125;DHT22;38119;52.710;6.398;2023-02-11T04:18:02;7.10;99.90
52125;DHT22;38119;52.710;6.398;2023-02-11T04:20:28;7.00;99.90
52125;DHT22;38119;52.710;6.398;2023-02-11T04:22:54;7.00;99.90
52125;DHT22;38119;52.710;6.398;2023-02-11T04:25:20;7.00;99.90
52125;DHT22;38119;52.710;6.398;2023-02-11T04:27:45;7.00;99.90
52125;DHT22;38119;52.710;6.398;2023-02-11T04:30:12;6.90;99.90
52125;DHT22;38119;52.710;6.398;2023-02-11T04:32:37;7.00;99.90
52125;DHT22;38119;52.710;6.398;2023-02-11T04:35:03;6.90;99.90
52125;DHT22;38119;52.710;6.398;2023-02-11T04:37:29;6.90;99.90
52125;DHT22;38119;52.710;6.398;2023-02-11T04:39:55;6.90;99.90
52125;DHT22;38119;52.710;6.398;2023-02-11T04:42:20;7.00;99.90
52125;DHT22;38119;52.710;6.398;2023-02-11T04:44:46;6.90;99.90
52125;DHT22;38119;52.710;6.398;2023-02-11T04:47:12;6.90;99.90
52125;DHT22;38119;52.710;6.398;2023-02-11T04:49:40;6.80;99.90
52125;DHT22;38119;52.710;6.398;2023-02-11T04:52:06;6.90;99.90
52125;DHT22;38119;52.710;6.398;2023-02-11T04:54:31;6.90;99.90
52125;DHT22;38119;52.710;6.398;2023-02-11T04:56:57;7.00;99.90
52125;DHT22;38119;52.710;6.398;2023-02-11T04:59:23;6.90;99.90
52125;DHT22;38119;52.710;6.398;2023-02-11T05:01:48;6.90;99.90
52125;DHT22;38119;52.710;6.398;2023-02-11T05:04:15;6.90;99.90
52125;DHT22;38119;52.710;6.398;2023-02-11T05:06:40;6.90;99.90
52125;DHT22;38119;52.710;6.398;2023-02-11T05:09:07;6.90;99.90
52125;DHT22;38119;52.710;6.398;2023-02-11T05:11:33;6.90;99.90
52125;DHT22;38119;52.710;6.398;2023-02-11T05:13:58;6.90;99.90
52125;DHT22;38119;52.710;6.398;2023-02-11T05:16:24;6.90;99.90
52125;DHT22;38119;52.710;6.398;2023-02-11T05:18:49;6.90;99.90
52125;DHT22;38119;52.710;6.398;2023-02-11T05:21:17;6.90;99.90
52125;DHT22;38119;52.710;6.398;2023-02-11T05:23:44;6.90;99.90
52125;DHT22;38119;52.710;6.398;2023-02-11T05:26:10;6.90;99.90
52125;DHT22;38119;52.710;6.398;2023-02-11T05:28:36;6.90;99.90
52125;DHT22;38119;52.710;6.398;2023-02-11T05:31:02;6.90;99.90
52125;DHT22;38119;52.710;6.398;2023-02-11T05:33:28;6.90;99.90
52125;DHT22;38119;52.710;6.398;2023-02-11T05:35:58;7.00;99.90
52125;DHT22;38119;52.710;6.398;2023-02-11T05:38:24;7.00;99.90
52125;DHT22;38119;52.710;6.398;2023-02-11T05:40:50;7.00;99.90
52125;DHT22;38119;52.710;6.398;2023-02-11T05:43:16;7.10;99.90
52125;DHT22;38119;52.710;6.398;2023-02-11T05:45:41;7.00;99.90
52125;DHT22;38119;52.710;6.398;2023-02-11T05:48:07;7.00;99.90
52125;DHT22;38119;52.710;6.398;2023-02-11T05:50:32;7.10;99.90
52125;DHT22;38119;52.710;6.398;2023-02-11T05:52:58;7.10;99.90
52125;DHT22;38119;52.710;6.398;2023-02-11T05:55:24;7.20;99.90
52125;DHT22;38119;52.710;6.398;2023-02-11T05:57:49;7.10;99.90
52125;DHT22;38119;52.710;6.398;2023-02-11T06:00:15;7.10;99.90
52125;DHT22;38119;52.710;6.398;2023-02-11T06:02:41;7.20;99.90
52125;DHT22;38119;52.710;6.398;2023-02-11T06:05:08;7.10;99.90
52125;DHT22;38119;52.710;6.398;2023-02-11T06:07:33;7.20;99.90
52125;DHT22;38119;52.710;6.398;2023-02-11T06:09:59;7.10;99.90
52125;DHT22;38119;52.710;6.398;2023-02-11T06:12:25;7.20;99.90
52125;DHT22;38119;52.710;6.398;2023-02-11T06:14:51;7.20;99.90
52125;DHT22;38119;52.710;6.398;2023-02-11T06:17:17;7.10;99.90
52125;DHT22;38119;52.710;6.398;2023-02-11T06:19:43;7.10;99.90
52125;DHT22;38119;52.710;6.398;2023-02-11T06:22:09;7.20;99.90
52125;DHT22;38119;52.710;6.398;2023-02-11T06:24:35;7.20;99.90
52125;DHT22;38119;52.710;6.398;2023-02-11T06:27:02;7.20;99.90
52125;DHT22;38119;52.710;6.398;2023-02-11T06:29:28;7.10;99.90
52125;DHT22;38119;52.710;6.398;2023-02-11T06:31:53;7.20;99.90
52125;DHT22;38119;52.710;6.398;2023-02-11T06:34:19;7.20;99.90
52125;DHT22;38119;52.710;6.398;2023-02-11T06:36:45;7.20;99.90
52125;DHT22;38119;52.710;6.398;2023-02-11T06:39:11;7.20;99.90
52125;DHT22;38119;52.710;6.398;2023-02-11T06:41:37;7.20;99.90
52125;DHT22;38119;52.710;6.398;2023-02-11T06:44:03;7.20;99.90
52125;DHT22;38119;52.710;6.398;2023-02-11T06:46:28;7.30;99.90
52125;DHT22;38119;52.710;6.398;2023-02-11T06:48:54;7.20;99.90
52125;DHT22;38119;52.710;6.398;2023-02-11T06:51:20;7.20;99.90
52125;DHT22;38119;52.710;6.398;2023-02-11T06:53:46;7.20;99.90
52125;DHT22;38119;52.710;6.398;2023-02-11T06:56:14;7.20;99.90
52125;DHT22;38119;52.710;6.398;2023-02-11T06:58:40;7.20;99.90
52125;DHT22;38119;52.710;6.398;2023-02-11T07:01:07;7.30;99.90
52125;DHT22;38119;52.710;6.398;2023-02-11T07:03:38;7.20;99.90
52125;DHT22;38119;52.710;6.398;2023-02-11T07:06:06;7.30;99.90
52125;DHT22;38119;52.710;6.398;2023-02-11T07:08:33;7.20;99.90
52125;DHT22;38119;52.710;6.398;2023-02-11T07:10:59;7.20;99.90
52125;DHT22;38119;52.710;6.398;2023-02-11T07:13:24;7.20;99.90
52125;DHT22;38119;52.710;6.398;2023-02-11T07:15:50;7.20;99.90
52125;DHT22;38119;52.710;6.398;2023-02-11T07:18:16;7.30;99.90
52125;DHT22;38119;52.710;6.398;2023-02-11T07:20:42;7.30;99.90
52125;DHT22;38119;52.710;6.398;2023-02-11T07:23:07;7.30;99.90
52125;DHT22;38119;52.710;6.398;2023-02-11T07:25:34;7.30;99.90
52125;DHT22;38119;52.710;6.398;2023-02-11T07:28:00;7.40;99.90
52125;DHT22;38119;52.710;6.398;2023-02-11T07:30:25;7.40;99.90
52125;DHT22;38119;52.710;6.398;2023-02-11T07:32:51;7.40;99.90
52125;DHT22;38119;52.710;6.398;2023-02-11T07:35:17;7.40;99.90
52125;DHT22;38119;52.710;6.398;2023-02-11T07:37:42;7.40;99.90
52125;DHT22;38119;52.710;6.398;2023-02-11T07:40:08;7.40;99.90
52125;DHT22;38119;52.710;6.398;2023-02-11T07:42:34;7.40;99.90
52125;DHT22;38119;52.710;6.398;2023-02-11T07:45:00;7.40;99.90
52125;DHT22;38119;52.710;6.398;2023-02-11T07:47:26;7.40;99.90
52125;DHT22;38119;52.710;6.398;2023-02-11T07:49:51;7.40;99.90
52125;DHT22;38119;52.710;6.398;2023-02-11T07:52:17;7.50;99.90
52125;DHT22;38119;52.710;6.398;2023-02-11T07:54:43;7.50;99.90
52125;DHT22;38119;52.710;6.398;2023-02-11T07:57:08;7.50;99.90
52125;DHT22;38119;52.710;6.398;2023-02-11T07:59:34;7.50;99.90
52125;DHT22;38119;52.710;6.398;2023-02-11T08:02:00;7.50;99.90
52125;DHT22;38119;52.710;6.398;2023-02-11T08:04:25;7.50;99.90
52125;DHT22;38119;52.710;6.398;2023-02-11T08:06:51;7.50;99.90
52125;DHT22;38119;52.710;6.398;2023-02-11T08:09:18;7.60;99.90
52125;DHT22;38119;52.710;6.398;2023-02-11T08:11:44;7.60;99.90
52125;DHT22;38119;52.710;6.398;2023-02-11T08:14:11;7.60;99.90
52125;DHT22;38119;52.710;6.398;2023-02-11T08:16:37;7.60;99.90
52125;DHT22;38119;52.710;6.398;2023-02-11T08:19:06;7.60;99.90
52125;DHT22;38119;52.710;6.398;2023-02-11T08:21:32;7.70;99.90
52125;DHT22;38119;52.710;6.398;2023-02-11T08:24:00;7.70;99.90
52125;DHT22;38119;52.710;6.398;2023-02-11T08:26:29;7.70;99.90
52125;DHT22;38119;52.710;6.398;2023-02-11T08:28:56;7.80;99.90
52125;DHT22;38119;52.710;6.398;2023-02-11T08:31:31;7.80;99.90
52125;DHT22;38119;52.710;6.398;2023-02-11T08:33:57;7.80;99.90
52125;DHT22;38119;52.710;6.398;2023-02-11T08:36:26;7.80;99.90
52125;DHT22;38119;52.710;6.398;2023-02-11T08:38:55;7.80;99.90
52125;DHT22;38119;52.710;6.398;2023-02-11T08:41:20;7.80;99.90
52125;DHT22;38119;52.710;6.398;2023-02-11T08:43:46;7.80;99.90
52125;DHT22;38119;52.710;6.398;2023-02-11T08:46:17;7.80;99.90
52125;DHT22;38119;52.710;6.398;2023-02-11T08:48:43;7.80;99.90
52125;DHT22;38119;52.710;6.398;2023-02-11T08:51:20;7.90;99.90
52125;DHT22;38119;52.710;6.398;2023-02-11T08:53:46;7.90;99.90
52125;DHT22;38119;52.710;6.398;2023-02-11T08:56:18;7.90;99.90
52125;DHT22;38119;52.710;6.398;2023-02-11T08:58:44;7.90;99.90
52125;DHT22;38119;52.710;6.398;2023-02-11T09:01:12;7.90;99.90
52125;DHT22;38119;52.710;6.398;2023-02-11T09:03:38;7.90;99.90
52125;DHT22;38119;52.710;6.398;2023-02-11T09:06:05;7.90;99.90
52125;DHT22;38119;52.710;6.398;2023-02-11T09:08:34;8.00;99.90
52125;DHT22;38119;52.710;6.398;2023-02-11T09:11:00;8.00;99.90
52125;DHT22;38119;52.710;6.398;2023-02-11T09:13:26;8.00;99.90
52125;DHT22;38119;52.710;6.398;2023-02-11T09:15:52;8.10;99.90
52125;DHT22;38119;52.710;6.398;2023-02-11T09:18:17;8.10;99.90
52125;DHT22;38119;52.710;6.398;2023-02-11T09:20:43;8.10;99.90
52125;DHT22;38119;52.710;6.398;2023-02-11T09:23:09;8.30;99.90
52125;DHT22;38119;52.710;6.398;2023-02-11T09:25:34;8.20;99.90
52125;DHT22;38119;52.710;6.398;2023-02-11T09:28:03;8.20;99.90
52125;DHT22;38119;52.710;6.398;2023-02-11T09:30:28;8.20;99.90
52125;DHT22;38119;52.710;6.398;2023-02-11T09:32:54;8.20;99.90
52125;DHT22;38119;52.710;6.398;2023-02-11T09:35:19;8.20;99.90
52125;DHT22;38119;52.710;6.398;2023-02-11T09:37:45;8.30;99.90
52125;DHT22;38119;52.710;6.398;2023-02-11T09:40:12;8.40;99.90
52125;DHT22;38119;52.710;6.398;2023-02-11T09:42:45;8.50;99.90
52125;DHT22;38119;52.710;6.398;2023-02-11T09:45:20;8.50;99.90
52125;DHT22;38119;52.710;6.398;2023-02-11T09:47:50;8.60;99.90
52125;DHT22;38119;52.710;6.398;2023-02-11T09:50:31;8.60;99.90
52125;DHT22;38119;52.710;6.398;2023-02-11T09:53:05;8.60;99.90
52125;DHT22;38119;52.710;6.398;2023-02-11T09:55:38;8.70;99.90
52125;DHT22;38119;52.710;6.398;2023-02-11T09:58:15;8.80;99.90
52125;DHT22;38119;52.710;6.398;2023-02-11T10:06:42;8.80;99.90
52125;DHT22;38119;52.710;6.398;2023-02-11T10:23:36;8.90;99.90
52125;DHT22;38119;52.710;6.398;2023-02-11T10:26:11;8.90;99.90
52125;DHT22;38119;52.710;6.398;2023-02-11T10:28:38;9.00;99.90
52125;DHT22;38119;52.710;6.398;2023-02-11T10:36:04;9.10;99.90
52125;DHT22;38119;52.710;6.398;2023-02-11T10:38:30;9.00;99.90
52125;DHT22;38119;52.710;6.398;2023-02-11T10:40:57;9.00;99.90
52125;DHT22;38119;52.710;6.398;2023-02-11T10:43:25;9.10;99.90
52125;DHT22;38119;52.710;6.398;2023-02-11T10:45:53;9.10;99.90
52125;DHT22;38119;52.710;6.398;2023-02-11T10:48:45;9.00;99.90
52125;DHT22;38119;52.710;6.398;2023-02-11T10:51:31;9.10;99.90
52125;DHT22;38119;52.710;6.398;2023-02-11T10:59:20;9.10;99.90
52125;DHT22;38119;52.710;6.398;2023-02-11T11:01:53;9.00;99.90
52125;DHT22;38119;52.710;6.398;2023-02-11T11:12:47;9.10;99.90
52125;DHT22;38119;52.710;6.398;2023-02-11T11:15:20;9.10;99.90
52125;DHT22;38119;52.710;6.398;2023-02-11T11:17:47;9.20;99.90
52125;DHT22;38119;52.710;6.398;2023-02-11T11:20:29;9.30;99.90
52125;DHT22;38119;52.710;6.398;2023-02-11T11:23:17;9.20;99.90
52125;DHT22;38119;52.710;6.398;2023-02-11T11:25:57;9.30;99.90
52125;DHT22;38119;52.710;6.398;2023-02-11T11:28:25;9.30;99.90
52125;DHT22;38119;52.710;6.398;2023-02-11T11:30:54;9.40;99.90
52125;DHT22;38119;52.710;6.398;2023-02-11T11:33:32;9.40;99.90
52125;DHT22;38119;52.710;6.398;2023-02-11T11:38:27;9.40;99.90
52125;DHT22;38119;52.710;6.398;2023-02-11T11:46:53;9.50;99.90
52125;DHT22;38119;52.710;6.398;2023-02-11T11:49:30;9.50;99.90
52125;DHT22;38119;52.710;6.398;2023-02-11T11:55:16;9.50;99.90
52125;DHT22;38119;52.710;6.398;2023-02-11T11:57:42;9.60;99.90
52125;DHT22;38119;52.710;6.398;2023-02-11T12:00:15;9.60;99.90
52125;DHT22;38119;52.710;6.398;2023-02-11T12:05:45;9.70;99.90
52125;DHT22;38119;52.710;6.398;2023-02-11T12:08:37;9.70;99.90
52125;DHT22;38119;52.710;6.398;2023-02-11T12:14:23;9.80;99.90
52125;DHT22;38119;52.710;6.398;2023-02-11T12:25:26;9.80;99.90
52125;DHT22;38119;52.710;6.398;2023-02-11T12:30:51;9.80;99.90
52125;DHT22;38119;52.710;6.398;2023-02-11T12:42:32;9.90;99.90
52125;DHT22;38119;52.710;6.398;2023-02-11T12:48:11;9.90;99.90
52125;DHT22;38119;52.710;6.398;2023-02-11T12:59:44;10.00;99.90
52125;DHT22;38119;52.710;6.398;2023-02-11T13:02:43;10.10;99.90
52125;DHT22;38119;52.710;6.398;2023-02-11T13:08:03;10.10;99.90
52125;DHT22;38119;52.710;6.398;2023-02-11T13:10:36;10.10;99.90
52125;DHT22;38119;52.710;6.398;2023-02-11T13:13:37;10.10;99.90
52125;DHT22;38119;52.710;6.398;2023-02-11T13:25:14;10.10;99.90
52125;DHT22;38119;52.710;6.398;2023-02-11T13:30:36;10.10;99.90
52125;DHT22;38119;52.710;6.398;2023-02-11T13:35:47;10.10;99.90
52125;DHT22;38119;52.710;6.398;2023-02-11T13:38:22;10.20;99.90
52125;DHT22;38119;52.710;6.398;2023-02-11T13:41:05;10.20;99.90
52125;DHT22;38119;52.710;6.398;2023-02-11T13:43:33;10.20;99.90
52125;DHT22;38119;52.710;6.398;2023-02-11T13:46:07;10.30;99.90
52125;DHT22;38119;52.710;6.398;2023-02-11T13:48:53;10.20;99.90
52125;DHT22;38119;52.710;6.398;2023-02-11T13:51:39;10.30;99.90
52125;DHT22;38119;52.710;6.398;2023-02-11T13:54:07;10.20;99.90
52125;DHT22;38119;52.710;6.398;2023-02-11T13:56:39;10.20;99.90
52125;DHT22;38119;52.710;6.398;2023-02-11T14:02:17;10.10;99.90
52125;DHT22;38119;52.710;6.398;2023-02-11T14:16:15;10.00;99.90
52125;DHT22;38119;52.710;6.398;2023-02-11T14:21:12;10.00;99.90
52125;DHT22;38119;52.710;6.398;2023-02-11T14:23:39;10.00;99.90
52125;DHT22;38119;52.710;6.398;2023-02-11T14:29:13;10.00;99.90
52125;DHT22;38119;52.710;6.398;2023-02-11T14:34:41;9.90;99.90
52125;DHT22;38119;52.710;6.398;2023-02-11T14:37:16;10.00;99.90
52125;DHT22;38119;52.710;6.398;2023-02-11T14:42:21;9.90;99.90
52125;DHT22;38119;52.710;6.398;2023-02-11T14:44:52;9.90;99.90
52125;DHT22;38119;52.710;6.398;2023-02-11T14:47:22;9.90;99.90
52125;DHT22;38119;52.710;6.398;2023-02-11T14:49:50;9.90;99.90
52125;DHT22;38119;52.710;6.398;2023-02-11T14:54:51;9.90;99.90
52125;DHT22;38119;52.710;6.398;2023-02-11T14:57:21;9.90;99.90
52125;DHT22;38119;52.710;6.398;2023-02-11T14:59:57;9.90;99.90
52125;DHT22;38119;52.710;6.398;2023-02-11T15:02:33;9.90;99.90
52125;DHT22;38119;52.710;6.398;2023-02-11T15:05:19;9.90;99.90
52125;DHT22;38119;52.710;6.398;2023-02-11T15:08:00;9.90;99.90
52125;DHT22;38119;52.710;6.398;2023-02-11T15:10:37;9.90;99.90
52125;DHT22;38119;52.710;6.398;2023-02-11T15:13:06;9.80;99.90
52125;DHT22;38119;52.710;6.398;2023-02-11T15:15:33;9.80;99.90
52125;DHT22;38119;52.710;6.398;2023-02-11T15:18:02;9.80;99.90
52125;DHT22;38119;52.710;6.398;2023-02-11T15:20:31;9.80;99.90
52125;DHT22;38119;52.710;6.398;2023-02-11T15:23:00;9.70;99.90
52125;DHT22;38119;52.710;6.398;2023-02-11T15:25:26;9.70;99.90
52125;DHT22;38119;52.710;6.398;2023-02-11T15:27:57;9.70;99.90
52125;DHT22;38119;52.710;6.398;2023-02-11T15:30:25;9.60;99.90
52125;DHT22;38119;52.710;6.398;2023-02-11T15:32:54;9.70;99.90
52125;DHT22;38119;52.710;6.398;2023-02-11T15:35:38;9.60;99.90
52125;DHT22;38119;52.710;6.398;2023-02-11T15:38:06;9.60;99.90
52125;DHT22;38119;52.710;6.398;2023-02-11T15:40:34;9.60;99.90
52125;DHT22;38119;52.710;6.398;2023-02-11T15:43:00;9.60;99.90
52125;DHT22;38119;52.710;6.398;2023-02-11T15:48:20;9.50;99.90
52125;DHT22;38119;52.710;6.398;2023-02-11T15:51:01;9.50;99.90
52125;DHT22;38119;52.710;6.398;2023-02-11T15:53:41;9.50;99.90
52125;DHT22;38119;52.710;6.398;2023-02-11T15:56:22;9.50;99.90
52125;DHT22;38119;52.710;6.398;2023-02-11T15:58:59;9.40;99.90
52125;DHT22;38119;52.710;6.398;2023-02-11T16:01:34;9.40;99.90
52125;DHT22;38119;52.710;6.398;2023-02-11T16:04:02;9.40;99.90
52125;DHT22;38119;52.710;6.398;2023-02-11T16:06:39;9.30;99.90
52125;DHT22;38119;52.710;6.398;2023-02-11T16:11:56;9.30;99.90
52125;DHT22;38119;52.710;6.398;2023-02-11T16:14:32;9.30;99.90
52125;DHT22;38119;52.710;6.398;2023-02-11T16:19:32;9.20;99.90
52125;DHT22;38119;52.710;6.398;2023-02-11T16:22:05;9.20;99.90
52125;DHT22;38119;52.710;6.398;2023-02-11T16:24:34;9.20;99.90
52125;DHT22;38119;52.710;6.398;2023-02-11T16:27:02;9.20;99.90
52125;DHT22;38119;52.710;6.398;2023-02-11T16:29:32;9.10;99.90
52125;DHT22;38119;52.710;6.398;2023-02-11T16:32:09;9.10;99.90
52125;DHT22;38119;52.710;6.398;2023-02-11T16:34:35;8.80;99.90
52125;DHT22;38119;52.710;6.398;2023-02-11T16:37:03;9.00;99.90
52125;DHT22;38119;52.710;6.398;2023-02-11T16:39:29;9.10;99.90
52125;DHT22;38119;52.710;6.398;2023-02-11T16:41:54;9.00;99.90
52125;DHT22;38119;52.710;6.398;2023-02-11T16:44:21;9.00;99.90
52125;DHT22;38119;52.710;6.398;2023-02-11T16:46:47;9.00;99.90
52125;DHT22;38119;52.710;6.398;2023-02-11T16:49:25;9.00;99.90
52125;DHT22;38119;52.710;6.398;2023-02-11T16:51:54;8.90;99.90
52125;DHT22;38119;52.710;6.398;2023-02-11T16:54:21;8.90;99.90
52125;DHT22;38119;52.710;6.398;2023-02-11T16:56:47;8.90;99.90
52125;DHT22;38119;52.710;6.398;2023-02-11T16:59:14;8.80;99.90
52125;DHT22;38119;52.710;6.398;2023-02-11T17:01:40;8.80;99.90
52125;DHT22;38119;52.710;6.398;2023-02-11T17:04:15;8.80;99.90
52125;DHT22;38119;52.710;6.398;2023-02-11T17:06:42;8.80;99.90
52125;DHT22;38119;52.710;6.398;2023-02-11T17:09:15;8.80;99.90
52125;DHT22;38119;52.710;6.398;2023-02-11T17:11:42;8.70;99.90
52125;DHT22;38119;52.710;6.398;2023-02-11T17:14:07;8.70;99.90
52125;DHT22;38119;52.710;6.398;2023-02-11T17:16:33;8.70;99.90
52125;DHT22;38119;52.710;6.398;2023-02-11T17:18:58;8.70;99.90
52125;DHT22;38119;52.710;6.398;2023-02-11T17:21:24;8.70;99.90
52125;DHT22;38119;52.710;6.398;2023-02-11T17:23:51;8.70;99.90
52125;DHT22;38119;52.710;6.398;2023-02-11T17:26:17;8.60;99.90
52125;DHT22;38119;52.710;6.398;2023-02-11T17:28:42;8.60;99.90
52125;DHT22;38119;52.710;6.398;2023-02-11T17:31:08;8.60;99.90
52125;DHT22;38119;52.710;6.398;2023-02-11T17:33:34;8.60;99.90
52125;DHT22;38119;52.710;6.398;2023-02-11T17:36:04;8.60;99.90
52125;DHT22;38119;52.710;6.398;2023-02-11T17:38:29;8.60;99.90
52125;DHT22;38119;52.710;6.398;2023-02-11T17:40:56;8.60;99.90
52125;DHT22;38119;52.710;6.398;2023-02-11T17:43:23;8.60;99.90
52125;DHT22;38119;52.710;6.398;2023-02-11T17:45:49;8.60;99.90
52125;DHT22;38119;52.710;6.398;2023-02-11T17:48:14;8.60;99.90
52125;DHT22;38119;52.710;6.398;2023-02-11T17:50:40;8.60;99.90
52125;DHT22;38119;52.710;6.398;2023-02-11T17:53:06;8.60;99.90
52125;DHT22;38119;52.710;6.398;2023-02-11T17:55:33;8.50;99.90
52125;DHT22;38119;52.710;6.398;2023-02-11T17:57:59;8.50;99.90
52125;DHT22;38119;52.710;6.398;2023-02-11T18:00:25;8.60;99.90
52125;DHT22;38119;52.710;6.398;2023-02-11T18:02:52;8.50;99.90
52125;DHT22;38119;52.710;6.398;2023-02-11T18:05:18;8.50;99.90
52125;DHT22;38119;52.710;6.398;2023-02-11T18:07:44;8.50;99.90
52125;DHT22;38119;52.710;6.398;2023-02-11T18:10:10;8.50;99.90
52125;DHT22;38119;52.710;6.398;2023-02-11T18:12:36;8.50;99.90
52125;DHT22;38119;52.710;6.398;2023-02-11T18:15:01;8.40;99.90
52125;DHT22;38119;52.710;6.398;2023-02-11T18:17:27;8.50;99.90
52125;DHT22;38119;52.710;6.398;2023-02-11T18:19:56;8.40;99.90
52125;DHT22;38119;52.710;6.398;2023-02-11T18:22:23;8.50;99.90
52125;DHT22;38119;52.710;6.398;2023-02-11T18:24:54;8.50;99.90
52125;DHT22;38119;52.710;6.398;2023-02-11T18:27:21;8.50;99.90
52125;DHT22;38119;52.710;6.398;2023-02-11T18:29:46;8.40;99.90
52125;DHT22;38119;52.710;6.398;2023-02-11T18:32:12;8.40;99.90
52125;DHT22;38119;52.710;6.398;2023-02-11T18:34:41;8.40;99.90
52125;DHT22;38119;52.710;6.398;2023-02-11T18:37:07;8.40;99.90
52125;DHT22;38119;52.710;6.398;2023-02-11T18:39:33;8.40;99.90
52125;DHT22;38119;52.710;6.398;2023-02-11T18:41:59;8.40;99.90
52125;DHT22;38119;52.710;6.398;2023-02-11T18:44:26;8.40;99.90
52125;DHT22;38119;52.710;6.398;2023-02-11T18:46:52;8.30;99.90
52125;DHT22;38119;52.710;6.398;2023-02-11T18:49:18;8.40;99.90
52125;DHT22;38119;52.710;6.398;2023-02-11T18:51:44;8.30;99.90
52125;DHT22;38119;52.710;6.398;2023-02-11T18:54:10;8.30;99.90